createdAt,value
2016-11-30T00:00:20.945Z,1019.40
2016-11-30T00:00:42.782Z,1019.43
2016-11-30T00:01:04.499Z,1019.41
2016-11-30T00:01:26.211Z,1019.43
2016-11-30T00:01:47.929Z,1019.49
2016-11-30T00:02:09.655Z,1019.50
2016-11-30T00:02:31.365Z,1019.53
2016-11-30T00:02:53.077Z,1019.50
2016-11-30T00:03:14.792Z,1019.45
2016-11-30T00:03:36.513Z,1019.35
2016-11-30T00:03:58.234Z,1019.30
2016-11-30T00:04:19.943Z,1019.27
2016-11-30T00:04:41.658Z,1019.31
2016-11-30T00:05:03.375Z,1019.34
2016-11-30T00:05:25.127Z,1019.28
2016-11-30T00:05:46.851Z,1019.34
2016-11-30T00:06:08.566Z,1019.37
2016-11-30T00:06:30.278Z,1019.26
2016-11-30T00:06:52.010Z,1019.28
2016-11-30T00:07:13.722Z,1019.32
2016-11-30T00:07:35.457Z,1019.11
2016-11-30T00:07:57.167Z,1019.27
2016-11-30T00:08:18.881Z,1019.34
2016-11-30T00:08:40.594Z,1019.29
2016-11-30T00:09:02.324Z,1019.30
2016-11-30T00:09:24.055Z,1019.46
2016-11-30T00:09:45.883Z,1019.42
2016-11-30T00:10:07.594Z,1019.44
2016-11-30T00:10:29.303Z,1019.43
2016-11-30T00:10:51.018Z,1019.45
2016-11-30T00:11:12.729Z,1019.40
2016-11-30T00:11:34.439Z,1019.44
2016-11-30T00:11:56.152Z,1019.43
2016-11-30T00:12:17.863Z,1019.45
2016-11-30T00:12:39.584Z,1019.39
2016-11-30T00:13:01.292Z,1019.39
2016-11-30T00:13:23.005Z,1019.38
2016-11-30T00:13:44.709Z,1019.40
2016-11-30T00:14:06.420Z,1019.42
2016-11-30T00:14:28.263Z,1019.32
2016-11-30T00:14:49.984Z,1019.37
2016-11-30T00:15:11.699Z,1019.36
2016-11-30T00:15:33.425Z,1019.33
2016-11-30T00:15:55.138Z,1019.31
2016-11-30T00:16:16.852Z,1019.26
2016-11-30T00:16:38.557Z,1019.36
2016-11-30T00:17:00.275Z,1019.34
2016-11-30T00:17:21.988Z,1019.35
2016-11-30T00:17:43.708Z,1019.33
2016-11-30T00:18:05.414Z,1019.35
2016-11-30T00:18:27.131Z,1019.30
2016-11-30T00:18:48.848Z,1019.28
2016-11-30T00:19:10.647Z,1019.32
2016-11-30T00:19:32.368Z,1019.33
2016-11-30T00:19:54.089Z,1019.26
2016-11-30T00:20:15.799Z,1019.20
2016-11-30T00:20:37.508Z,1019.11
2016-11-30T00:20:59.218Z,1019.03
2016-11-30T00:21:20.934Z,1019.13
2016-11-30T00:21:43.643Z,1019.23
2016-11-30T00:22:05.354Z,1019.18
2016-11-30T00:22:27.073Z,1019.14
2016-11-30T00:22:48.787Z,1019.20
2016-11-30T00:23:10.512Z,1019.12
2016-11-30T00:23:32.241Z,1019.11
2016-11-30T00:23:53.927Z,1019.19
2016-11-30T00:24:15.649Z,1019.13
2016-11-30T00:24:37.367Z,1018.97
2016-11-30T00:24:59.109Z,1018.98
2016-11-30T00:25:20.818Z,1018.99
2016-11-30T00:25:42.532Z,1019.01
2016-11-30T00:26:04.251Z,1019.08
2016-11-30T00:26:25.967Z,1019.12
2016-11-30T00:26:47.787Z,1019.10
2016-11-30T00:27:09.508Z,1019.06
2016-11-30T00:27:31.238Z,1019.10
2016-11-30T00:27:52.949Z,1019.12
2016-11-30T00:28:14.664Z,1019.12
2016-11-30T00:28:36.379Z,1019.14
2016-11-30T00:28:58.111Z,1019.17
2016-11-30T00:29:19.815Z,1019.11
2016-11-30T00:29:41.540Z,1019.14
2016-11-30T00:30:03.244Z,1019.02
2016-11-30T00:30:24.959Z,1019.08
2016-11-30T00:30:46.668Z,1019.15
2016-11-30T00:31:08.389Z,1019.13
2016-11-30T00:31:30.100Z,1019.12
2016-11-30T00:31:51.817Z,1019.17
2016-11-30T00:32:13.526Z,1018.94
2016-11-30T00:32:35.248Z,1018.75
2016-11-30T00:32:56.957Z,1018.72
2016-11-30T00:33:18.677Z,1018.86
2016-11-30T00:33:40.398Z,1018.96
2016-11-30T00:34:02.119Z,1019.13
2016-11-30T00:34:23.848Z,1019.22
2016-11-30T00:34:45.547Z,1019.14
2016-11-30T00:35:07.263Z,1019.09
2016-11-30T00:35:28.970Z,1019.12
2016-11-30T00:35:50.684Z,1019.18
2016-11-30T00:36:12.400Z,1019.27
2016-11-30T00:36:34.116Z,1019.29
2016-11-30T00:36:55.828Z,1019.24
2016-11-30T00:37:17.563Z,1019.16
2016-11-30T00:37:39.271Z,1019.16
2016-11-30T00:38:00.983Z,1019.10
2016-11-30T00:38:22.701Z,1019.04
2016-11-30T00:38:44.418Z,1019.09
2016-11-30T00:39:06.135Z,1019.13
2016-11-30T00:39:27.839Z,1019.10
2016-11-30T00:39:49.557Z,1019.09
2016-11-30T00:40:11.298Z,1019.05
2016-11-30T00:40:33.007Z,1019.01
2016-11-30T00:40:54.720Z,1019.02
2016-11-30T00:41:16.436Z,1019.09
2016-11-30T00:41:38.165Z,1019.01
2016-11-30T00:41:59.880Z,1019.01
2016-11-30T00:42:22.626Z,1019.02
2016-11-30T00:42:44.335Z,1019.09
2016-11-30T00:43:06.063Z,1018.88
2016-11-30T00:43:27.786Z,1019.10
2016-11-30T00:43:49.500Z,1019.10
2016-11-30T00:44:11.222Z,1019.05
2016-11-30T00:44:32.952Z,1019.00
2016-11-30T00:44:54.668Z,1019.00
2016-11-30T00:45:16.378Z,1018.98
2016-11-30T00:45:39.097Z,1018.82
2016-11-30T00:46:00.807Z,1018.84
2016-11-30T00:46:22.521Z,1018.92
2016-11-30T00:46:44.242Z,1018.84
2016-11-30T00:47:05.955Z,1018.77
2016-11-30T00:47:27.667Z,1019.04
2016-11-30T00:47:49.385Z,1019.08
2016-11-30T00:48:11.095Z,1019.05
2016-11-30T00:48:32.803Z,1018.92
2016-11-30T00:48:54.525Z,1019.02
2016-11-30T00:49:16.252Z,1018.99
2016-11-30T00:49:37.981Z,1019.02
2016-11-30T00:49:59.695Z,1019.12
2016-11-30T00:50:21.407Z,1019.04
2016-11-30T00:50:43.121Z,1019.15
2016-11-30T00:51:04.835Z,1019.14
2016-11-30T00:51:26.553Z,1019.22
2016-11-30T00:51:48.262Z,1019.30
2016-11-30T00:52:14.752Z,1019.26
2016-11-30T00:52:36.514Z,1019.32
2016-11-30T00:52:58.230Z,1019.27
2016-11-30T00:53:19.949Z,1019.29
2016-11-30T00:53:41.664Z,1019.28
2016-11-30T00:54:03.378Z,1019.14
2016-11-30T00:54:25.106Z,1019.09
2016-11-30T00:54:46.826Z,1019.15
2016-11-30T00:55:08.543Z,1019.13
2016-11-30T00:55:30.259Z,1019.19
2016-11-30T00:55:51.972Z,1019.27
2016-11-30T00:56:13.684Z,1019.20
2016-11-30T00:56:35.412Z,1019.27
2016-11-30T00:56:57.113Z,1019.22
2016-11-30T00:57:18.829Z,1019.19
2016-11-30T00:57:40.538Z,1019.23
2016-11-30T00:58:02.247Z,1019.19
2016-11-30T00:58:23.957Z,1019.25
2016-11-30T00:58:45.676Z,1019.18
2016-11-30T00:59:07.396Z,1019.15
2016-11-30T00:59:29.105Z,1019.17
2016-11-30T00:59:50.824Z,1019.19
2016-11-30T01:00:12.553Z,1019.23
2016-11-30T01:00:34.264Z,1019.15
2016-11-30T01:00:55.972Z,1019.25
2016-11-30T01:01:17.677Z,1019.35
2016-11-30T01:01:39.399Z,1019.38
2016-11-30T01:02:01.116Z,1019.40
2016-11-30T01:02:22.884Z,1019.43
2016-11-30T01:02:44.591Z,1019.40
2016-11-30T01:03:06.297Z,1019.35
2016-11-30T01:03:28.011Z,1019.49
2016-11-30T01:03:49.725Z,1019.56
2016-11-30T01:04:11.442Z,1019.37
2016-11-30T01:04:33.153Z,1019.46
2016-11-30T01:04:54.883Z,1019.51
2016-11-30T01:05:16.595Z,1019.35
2016-11-30T01:05:38.310Z,1019.42
2016-11-30T01:06:00.015Z,1019.53
2016-11-30T01:06:21.733Z,1019.57
2016-11-30T01:06:43.454Z,1019.52
2016-11-30T01:07:05.157Z,1019.62
2016-11-30T01:07:26.873Z,1019.57
2016-11-30T01:07:48.581Z,1019.55
2016-11-30T01:08:10.326Z,1019.71
2016-11-30T01:08:36.805Z,1019.72
2016-11-30T01:08:58.521Z,1019.57
2016-11-30T01:09:20.237Z,1019.58
2016-11-30T01:09:41.950Z,1019.59
2016-11-30T01:10:03.663Z,1019.63
2016-11-30T01:10:25.389Z,1019.57
2016-11-30T01:10:47.105Z,1019.59
2016-11-30T01:11:08.829Z,1019.52
2016-11-30T01:11:30.634Z,1019.56
2016-11-30T01:11:52.360Z,1019.60
2016-11-30T01:12:14.070Z,1019.58
2016-11-30T01:12:35.783Z,1019.54
2016-11-30T01:12:57.495Z,1019.57
2016-11-30T01:13:19.208Z,1019.48
2016-11-30T01:13:40.926Z,1019.54
2016-11-30T01:14:02.651Z,1019.76
2016-11-30T01:14:24.370Z,1019.77
2016-11-30T01:14:46.084Z,1019.76
2016-11-30T01:15:07.799Z,1019.71
2016-11-30T01:15:29.522Z,1019.70
2016-11-30T01:15:51.235Z,1019.76
2016-11-30T01:16:12.950Z,1019.74
2016-11-30T01:16:34.663Z,1019.75
2016-11-30T01:16:56.378Z,1019.75
2016-11-30T01:17:22.861Z,1019.73
2016-11-30T01:17:44.573Z,1019.71
2016-11-30T01:18:06.295Z,1019.76
2016-11-30T01:18:28.009Z,1019.85
2016-11-30T01:18:49.743Z,1019.79
2016-11-30T01:19:11.458Z,1019.80
2016-11-30T01:19:33.165Z,1019.84
2016-11-30T01:19:54.881Z,1019.81
2016-11-30T01:20:16.597Z,1019.85
2016-11-30T01:20:38.314Z,1019.81
2016-11-30T01:21:00.031Z,1019.76
2016-11-30T01:21:21.756Z,1019.83
2016-11-30T01:21:46.057Z,1019.73
2016-11-30T01:22:07.779Z,1019.74
2016-11-30T01:22:29.503Z,1019.66
2016-11-30T01:22:51.237Z,1019.79
2016-11-30T01:23:12.963Z,1019.73
2016-11-30T01:23:34.679Z,1019.80
2016-11-30T01:23:56.418Z,1019.82
2016-11-30T01:24:18.132Z,1019.80
2016-11-30T01:24:39.855Z,1019.78
2016-11-30T01:25:01.705Z,1019.84
2016-11-30T01:25:24.425Z,1019.80
2016-11-30T01:25:46.149Z,1019.79
2016-11-30T01:26:07.857Z,1019.76
2016-11-30T01:26:31.577Z,1019.79
2016-11-30T01:26:53.295Z,1019.77
2016-11-30T01:27:15.012Z,1019.79
2016-11-30T01:27:36.733Z,1019.81
2016-11-30T01:27:58.445Z,1019.84
2016-11-30T01:28:20.151Z,1019.76
2016-11-30T01:28:41.867Z,1019.73
2016-11-30T01:29:03.580Z,1019.73
2016-11-30T01:29:25.288Z,1019.73
2016-11-30T01:29:47.005Z,1019.68
2016-11-30T01:30:08.733Z,1019.68
2016-11-30T01:30:30.453Z,1019.72
2016-11-30T01:30:52.165Z,1019.64
2016-11-30T01:31:13.870Z,1019.68
2016-11-30T01:31:35.582Z,1019.69
2016-11-30T01:31:57.298Z,1019.61
2016-11-30T01:32:19.005Z,1019.66
2016-11-30T01:32:40.730Z,1019.67
2016-11-30T01:33:02.428Z,1019.70
2016-11-30T01:33:24.138Z,1019.69
2016-11-30T01:33:45.857Z,1019.64
2016-11-30T01:34:07.578Z,1019.62
2016-11-30T01:34:29.338Z,1019.51
2016-11-30T01:34:51.060Z,1019.56
2016-11-30T01:35:12.774Z,1019.58
2016-11-30T01:35:34.486Z,1019.61
2016-11-30T01:35:56.204Z,1019.59
2016-11-30T01:36:17.914Z,1019.44
2016-11-30T01:36:39.623Z,1019.54
2016-11-30T01:37:01.350Z,1019.42
2016-11-30T01:37:23.052Z,1019.43
2016-11-30T01:37:44.760Z,1019.48
2016-11-30T01:38:06.509Z,1019.51
2016-11-30T01:38:28.225Z,1019.55
2016-11-30T01:38:49.945Z,1019.46
2016-11-30T01:39:11.679Z,1019.41
2016-11-30T01:39:33.390Z,1019.51
2016-11-30T01:39:55.094Z,1019.47
2016-11-30T01:40:16.806Z,1019.17
2016-11-30T01:40:38.523Z,1019.26
2016-11-30T01:41:00.229Z,1019.42
2016-11-30T01:41:21.941Z,1019.47
2016-11-30T01:41:43.664Z,1019.44
2016-11-30T01:42:05.484Z,1019.55
2016-11-30T01:42:27.196Z,1019.63
2016-11-30T01:42:48.912Z,1019.67
2016-11-30T01:43:10.631Z,1019.64
2016-11-30T01:43:32.368Z,1019.59
2016-11-30T01:43:54.084Z,1019.61
2016-11-30T01:44:15.805Z,1019.55
2016-11-30T01:44:37.520Z,1019.49
2016-11-30T01:44:59.230Z,1019.53
2016-11-30T01:45:20.947Z,1019.29
2016-11-30T01:45:42.661Z,1019.53
2016-11-30T01:46:04.381Z,1019.56
2016-11-30T01:46:26.099Z,1019.50
2016-11-30T01:46:47.823Z,1019.62
2016-11-30T01:47:09.545Z,1019.51
2016-11-30T01:47:31.261Z,1019.54
2016-11-30T01:47:52.978Z,1019.53
2016-11-30T01:48:14.686Z,1019.40
2016-11-30T01:48:37.409Z,1019.61
2016-11-30T01:48:59.119Z,1019.71
2016-11-30T01:49:20.834Z,1019.74
2016-11-30T01:49:42.547Z,1019.74
2016-11-30T01:50:04.261Z,1019.63
2016-11-30T01:50:25.978Z,1019.57
2016-11-30T01:50:47.694Z,1019.60
2016-11-30T01:51:09.410Z,1019.56
2016-11-30T01:51:31.132Z,1019.48
2016-11-30T01:51:52.851Z,1019.49
2016-11-30T01:52:14.603Z,1019.51
2016-11-30T01:52:36.338Z,1019.43
2016-11-30T01:52:58.050Z,1019.46
2016-11-30T01:53:19.773Z,1019.43
2016-11-30T01:53:41.489Z,1019.46
2016-11-30T01:54:03.200Z,1019.54
2016-11-30T01:54:24.928Z,1019.54
2016-11-30T01:54:46.773Z,1019.46
2016-11-30T01:55:08.481Z,1019.46
2016-11-30T01:55:30.197Z,1019.49
2016-11-30T01:55:51.927Z,1019.40
2016-11-30T01:56:13.627Z,1019.55
2016-11-30T01:56:35.337Z,1019.58
2016-11-30T01:56:57.069Z,1019.59
2016-11-30T01:57:18.789Z,1019.58
2016-11-30T01:57:40.514Z,1019.57
2016-11-30T01:58:02.236Z,1019.51
2016-11-30T01:58:23.949Z,1019.53
2016-11-30T01:58:45.679Z,1019.64
2016-11-30T01:59:07.395Z,1019.65
2016-11-30T01:59:29.115Z,1019.58
2016-11-30T01:59:50.824Z,1019.43
2016-11-30T02:00:12.541Z,1019.35
2016-11-30T02:00:34.255Z,1019.56
2016-11-30T02:00:55.970Z,1019.77
2016-11-30T02:01:17.685Z,1019.71
2016-11-30T02:01:39.400Z,1019.69
2016-11-30T02:02:01.119Z,1019.61
2016-11-30T02:02:22.829Z,1019.71
2016-11-30T02:02:44.556Z,1019.59
2016-11-30T02:03:06.263Z,1019.61
2016-11-30T02:03:27.983Z,1019.61
2016-11-30T02:03:49.700Z,1019.62
2016-11-30T02:04:11.445Z,1019.67
2016-11-30T02:04:33.172Z,1019.57
2016-11-30T02:04:54.890Z,1019.66
2016-11-30T02:05:16.598Z,1019.67
2016-11-30T02:05:38.328Z,1019.62
2016-11-30T02:06:00.042Z,1019.53
2016-11-30T02:06:21.759Z,1019.53
2016-11-30T02:06:43.466Z,1019.72
2016-11-30T02:07:05.184Z,1019.66
2016-11-30T02:07:26.904Z,1019.69
2016-11-30T02:07:48.625Z,1019.56
2016-11-30T02:08:10.331Z,1019.57
2016-11-30T02:08:32.063Z,1019.65
2016-11-30T02:08:53.832Z,1019.63
2016-11-30T02:09:15.555Z,1019.68
2016-11-30T02:09:37.269Z,1019.68
2016-11-30T02:09:58.982Z,1019.64
2016-11-30T02:10:20.683Z,1019.67
2016-11-30T02:10:42.400Z,1019.72
2016-11-30T02:11:04.109Z,1019.69
2016-11-30T02:11:25.828Z,1019.69
2016-11-30T02:11:47.540Z,1019.65
2016-11-30T02:12:09.252Z,1019.66
2016-11-30T02:12:30.964Z,1019.67
2016-11-30T02:12:52.676Z,1019.66
2016-11-30T02:13:14.399Z,1019.64
2016-11-30T02:13:36.150Z,1019.67
2016-11-30T02:13:57.889Z,1019.72
2016-11-30T02:14:19.607Z,1019.66
2016-11-30T02:14:41.317Z,1019.64
2016-11-30T02:15:03.035Z,1019.65
2016-11-30T02:15:24.765Z,1019.56
2016-11-30T02:15:46.478Z,1019.60
2016-11-30T02:16:08.192Z,1019.66
2016-11-30T02:16:29.906Z,1019.48
2016-11-30T02:16:51.618Z,1019.56
2016-11-30T02:17:13.332Z,1019.52
2016-11-30T02:17:35.054Z,1019.63
2016-11-30T02:17:56.773Z,1019.66
2016-11-30T02:18:18.566Z,1019.52
2016-11-30T02:18:40.280Z,1019.57
2016-11-30T02:19:01.999Z,1019.52
2016-11-30T02:19:23.715Z,1019.75
2016-11-30T02:19:45.436Z,1019.59
2016-11-30T02:20:07.141Z,1019.53
2016-11-30T02:20:28.851Z,1019.53
2016-11-30T02:20:50.565Z,1019.43
2016-11-30T02:21:12.276Z,1019.54
2016-11-30T02:21:33.995Z,1019.62
2016-11-30T02:21:55.713Z,1019.60
2016-11-30T02:22:17.436Z,1019.59
2016-11-30T02:22:39.150Z,1019.42
2016-11-30T02:23:00.997Z,1019.48
2016-11-30T02:23:22.707Z,1019.42
2016-11-30T02:23:44.419Z,1019.42
2016-11-30T02:24:06.136Z,1019.49
2016-11-30T02:24:27.847Z,1019.39
2016-11-30T02:24:49.564Z,1019.44
2016-11-30T02:25:11.275Z,1019.42
2016-11-30T02:25:32.989Z,1019.29
2016-11-30T02:25:54.708Z,1019.42
2016-11-30T02:26:16.409Z,1019.40
2016-11-30T02:26:38.129Z,1019.35
2016-11-30T02:26:59.846Z,1019.25
2016-11-30T02:27:21.558Z,1019.27
2016-11-30T02:27:43.273Z,1019.27
2016-11-30T02:28:05.005Z,1019.24
2016-11-30T02:28:26.724Z,1019.15
2016-11-30T02:28:48.434Z,1019.30
2016-11-30T02:29:10.152Z,1019.17
2016-11-30T02:29:31.858Z,1019.23
2016-11-30T02:29:53.576Z,1019.19
2016-11-30T02:30:15.296Z,1019.17
2016-11-30T02:30:37.011Z,1019.18
2016-11-30T02:30:58.733Z,1019.21
2016-11-30T02:31:20.435Z,1019.19
2016-11-30T02:31:42.146Z,1019.21
2016-11-30T02:32:03.855Z,1019.19
2016-11-30T02:32:25.582Z,1019.14
2016-11-30T02:32:47.302Z,1019.14
2016-11-30T02:33:09.020Z,1019.12
2016-11-30T02:33:30.736Z,1019.16
2016-11-30T02:33:52.448Z,1019.08
2016-11-30T02:34:14.205Z,1019.10
2016-11-30T02:34:35.920Z,1019.20
2016-11-30T02:34:57.634Z,1019.18
2016-11-30T02:35:19.360Z,1019.12
2016-11-30T02:35:41.073Z,1019.07
2016-11-30T02:36:02.805Z,1019.19
2016-11-30T02:36:24.516Z,1019.23
2016-11-30T02:36:46.228Z,1019.22
2016-11-30T02:37:08.070Z,1019.11
2016-11-30T02:37:29.781Z,1019.13
2016-11-30T02:37:51.493Z,1019.09
2016-11-30T02:38:13.211Z,1019.14
2016-11-30T02:38:39.696Z,1019.00
2016-11-30T02:39:01.406Z,1019.02
2016-11-30T02:39:23.128Z,1019.02
2016-11-30T02:39:44.838Z,1018.93
2016-11-30T02:40:06.555Z,1018.94
2016-11-30T02:40:28.291Z,1018.86
2016-11-30T02:40:49.996Z,1018.80
2016-11-30T02:41:11.715Z,1018.78
2016-11-30T02:41:33.434Z,1018.71
2016-11-30T02:41:55.165Z,1018.75
2016-11-30T02:42:16.878Z,1018.81
2016-11-30T02:42:38.600Z,1018.79
2016-11-30T02:43:00.370Z,1018.88
2016-11-30T02:43:22.087Z,1018.75
2016-11-30T02:43:43.807Z,1018.55
2016-11-30T02:44:05.517Z,1018.66
2016-11-30T02:44:27.244Z,1018.70
2016-11-30T02:44:48.957Z,1018.83
2016-11-30T02:45:10.675Z,1018.80
2016-11-30T02:45:32.391Z,1018.97
2016-11-30T02:45:54.102Z,1018.95
2016-11-30T02:46:15.815Z,1018.93
2016-11-30T02:46:37.525Z,1019.02
2016-11-30T02:46:59.233Z,1018.98
2016-11-30T02:47:20.940Z,1018.89
2016-11-30T02:47:42.672Z,1018.74
2016-11-30T02:48:04.386Z,1018.70
2016-11-30T02:48:26.112Z,1018.87
2016-11-30T02:48:47.825Z,1018.97
2016-11-30T02:49:09.537Z,1019.04
2016-11-30T02:49:31.268Z,1018.90
2016-11-30T02:49:52.974Z,1019.03
2016-11-30T02:50:14.687Z,1018.90
2016-11-30T02:50:36.405Z,1018.84
2016-11-30T02:50:58.137Z,1018.81
2016-11-30T02:51:19.836Z,1018.80
2016-11-30T02:51:41.562Z,1018.82
2016-11-30T02:52:03.270Z,1018.82
2016-11-30T02:52:25.156Z,1018.78
2016-11-30T02:52:46.871Z,1018.79
2016-11-30T02:53:08.664Z,1018.89
2016-11-30T02:53:30.482Z,1018.85
2016-11-30T02:53:52.342Z,1018.73
2016-11-30T02:54:14.060Z,1018.68
2016-11-30T02:54:35.791Z,1018.99
2016-11-30T02:54:57.509Z,1018.88
2016-11-30T02:55:19.227Z,1018.89
2016-11-30T02:55:40.943Z,1019.03
2016-11-30T02:56:02.663Z,1019.10
2016-11-30T02:56:24.379Z,1019.10
2016-11-30T02:56:46.096Z,1019.08
2016-11-30T02:57:07.924Z,1019.04
2016-11-30T02:57:34.409Z,1019.06
2016-11-30T02:57:56.124Z,1019.03
2016-11-30T02:58:17.863Z,1019.00
2016-11-30T02:58:39.576Z,1019.02
2016-11-30T02:59:01.296Z,1019.10
2016-11-30T02:59:23.006Z,1018.96
2016-11-30T02:59:44.729Z,1018.73
2016-11-30T03:00:06.435Z,1018.76
2016-11-30T03:00:28.173Z,1018.90
2016-11-30T03:00:49.877Z,1018.91
2016-11-30T03:01:11.590Z,1019.19
2016-11-30T03:01:33.309Z,1019.20
2016-11-30T03:01:55.020Z,1019.22
2016-11-30T03:02:16.740Z,1019.31
2016-11-30T03:02:38.449Z,1019.27
2016-11-30T03:03:00.176Z,1019.19
2016-11-30T03:03:21.893Z,1019.02
2016-11-30T03:03:43.601Z,1019.13
2016-11-30T03:04:05.311Z,1019.09
2016-11-30T03:04:27.033Z,1019.07
2016-11-30T03:04:48.750Z,1018.99
2016-11-30T03:05:10.472Z,1018.99
2016-11-30T03:05:32.183Z,1018.91
2016-11-30T03:05:53.894Z,1018.79
2016-11-30T03:06:15.606Z,1018.60
2016-11-30T03:06:37.322Z,1018.84
2016-11-30T03:06:59.040Z,1018.83
2016-11-30T03:07:20.755Z,1018.65
2016-11-30T03:07:42.509Z,1018.64
2016-11-30T03:08:04.224Z,1018.64
2016-11-30T03:08:25.940Z,1018.71
2016-11-30T03:08:47.653Z,1018.69
2016-11-30T03:09:09.384Z,1018.67
2016-11-30T03:09:31.098Z,1018.77
2016-11-30T03:09:52.823Z,1018.72
2016-11-30T03:10:14.540Z,1018.75
2016-11-30T03:10:36.259Z,1018.73
2016-11-30T03:10:57.971Z,1018.72
2016-11-30T03:11:19.690Z,1018.72
2016-11-30T03:11:41.400Z,1018.71
2016-11-30T03:12:03.118Z,1018.62
2016-11-30T03:12:24.908Z,1018.51
2016-11-30T03:12:46.627Z,1018.44
2016-11-30T03:13:08.347Z,1018.57
2016-11-30T03:13:30.057Z,1018.43
2016-11-30T03:13:51.772Z,1018.46
2016-11-30T03:14:13.484Z,1018.74
2016-11-30T03:14:35.200Z,1018.48
2016-11-30T03:14:56.929Z,1018.49
2016-11-30T03:15:18.639Z,1018.59
2016-11-30T03:15:40.346Z,1018.90
2016-11-30T03:16:02.060Z,1018.96
2016-11-30T03:16:23.771Z,1018.73
2016-11-30T03:16:45.483Z,1018.68
2016-11-30T03:17:07.215Z,1018.85
2016-11-30T03:17:28.929Z,1018.58
2016-11-30T03:17:50.650Z,1018.61
2016-11-30T03:18:12.368Z,1018.81
2016-11-30T03:18:34.081Z,1018.85
2016-11-30T03:18:55.797Z,1018.86
2016-11-30T03:19:17.510Z,1018.83
2016-11-30T03:19:39.228Z,1018.84
2016-11-30T03:20:00.942Z,1018.72
2016-11-30T03:20:22.665Z,1018.69
2016-11-30T03:20:44.375Z,1018.76
2016-11-30T03:21:06.081Z,1018.84
2016-11-30T03:21:27.793Z,1018.80
2016-11-30T03:21:49.541Z,1018.78
2016-11-30T03:22:11.256Z,1018.71
2016-11-30T03:22:32.964Z,1018.79
2016-11-30T03:22:54.691Z,1018.76
2016-11-30T03:23:16.408Z,1018.61
2016-11-30T03:23:38.120Z,1018.76
2016-11-30T03:23:59.831Z,1018.84
2016-11-30T03:24:21.538Z,1018.80
2016-11-30T03:24:43.267Z,1018.71
2016-11-30T03:25:04.979Z,1018.72
2016-11-30T03:25:26.688Z,1018.85
2016-11-30T03:25:48.410Z,1018.80
2016-11-30T03:26:10.122Z,1018.93
2016-11-30T03:26:31.851Z,1018.69
2016-11-30T03:26:53.563Z,1018.65
2016-11-30T03:27:15.309Z,1018.85
2016-11-30T03:27:37.032Z,1018.87
2016-11-30T03:27:58.742Z,1018.87
2016-11-30T03:28:20.469Z,1018.86
2016-11-30T03:28:42.174Z,1018.91
2016-11-30T03:29:03.889Z,1018.88
2016-11-30T03:29:25.610Z,1018.83
2016-11-30T03:29:47.325Z,1018.85
2016-11-30T03:30:09.036Z,1018.85
2016-11-30T03:30:30.757Z,1018.79
2016-11-30T03:30:52.468Z,1018.84
2016-11-30T03:31:14.187Z,1018.91
2016-11-30T03:31:35.899Z,1019.03
2016-11-30T03:31:57.608Z,1018.99
2016-11-30T03:32:19.328Z,1018.92
2016-11-30T03:32:41.041Z,1018.95
2016-11-30T03:33:02.764Z,1019.06
2016-11-30T03:33:24.481Z,1019.06
2016-11-30T03:33:46.194Z,1019.19
2016-11-30T03:34:07.906Z,1019.07
2016-11-30T03:34:29.615Z,1018.89
2016-11-30T03:34:51.329Z,1018.90
2016-11-30T03:35:13.043Z,1018.91
2016-11-30T03:35:34.760Z,1019.22
2016-11-30T03:35:56.500Z,1019.19
2016-11-30T03:36:18.215Z,1019.00
2016-11-30T03:36:39.953Z,1019.10
2016-11-30T03:37:02.667Z,1019.07
2016-11-30T03:37:24.391Z,1018.97
2016-11-30T03:37:46.098Z,1018.99
2016-11-30T03:38:07.814Z,1019.04
2016-11-30T03:38:29.520Z,1019.11
2016-11-30T03:38:51.229Z,1019.14
2016-11-30T03:39:12.945Z,1019.03
2016-11-30T03:39:34.656Z,1019.08
2016-11-30T03:39:56.370Z,1019.19
2016-11-30T03:40:18.209Z,1019.27
2016-11-30T03:40:39.919Z,1019.24
2016-11-30T03:41:01.627Z,1019.07
2016-11-30T03:41:23.336Z,1019.18
2016-11-30T03:41:45.048Z,1019.20
2016-11-30T03:42:06.762Z,1019.21
2016-11-30T03:42:28.467Z,1019.25
2016-11-30T03:42:50.179Z,1019.20
2016-11-30T03:43:11.910Z,1019.16
2016-11-30T03:43:33.624Z,1019.21
2016-11-30T03:43:55.333Z,1019.24
2016-11-30T03:44:21.824Z,1019.10
2016-11-30T03:44:43.551Z,1019.21
2016-11-30T03:45:10.046Z,1019.09
2016-11-30T03:45:36.509Z,1019.13
2016-11-30T03:45:58.225Z,1019.19
2016-11-30T03:46:19.935Z,1019.15
2016-11-30T03:46:41.652Z,1019.09
2016-11-30T03:47:03.360Z,1019.19
2016-11-30T03:47:25.068Z,1019.04
2016-11-30T03:47:46.796Z,1018.90
2016-11-30T03:48:08.512Z,1019.08
2016-11-30T03:48:30.231Z,1019.21
2016-11-30T03:48:51.946Z,1019.16
2016-11-30T03:49:13.658Z,1019.12
2016-11-30T03:49:35.372Z,1019.26
2016-11-30T03:49:57.084Z,1019.23
2016-11-30T03:50:18.800Z,1019.22
2016-11-30T03:50:40.512Z,1019.17
2016-11-30T03:51:02.225Z,1019.22
2016-11-30T03:51:23.948Z,1019.20
2016-11-30T03:51:45.663Z,1019.07
2016-11-30T03:52:12.152Z,1019.10
2016-11-30T03:52:33.863Z,1019.11
2016-11-30T03:52:55.577Z,1018.97
2016-11-30T03:53:17.289Z,1019.12
2016-11-30T03:53:39.004Z,1019.04
2016-11-30T03:54:00.729Z,1019.06
2016-11-30T03:54:22.452Z,1019.01
2016-11-30T03:54:44.169Z,1019.02
2016-11-30T03:55:05.888Z,1019.08
2016-11-30T03:55:27.602Z,1019.10
2016-11-30T03:55:49.324Z,1018.94
2016-11-30T03:56:11.030Z,1018.91
2016-11-30T03:56:32.741Z,1019.15
2016-11-30T03:56:54.453Z,1019.18
2016-11-30T03:57:16.163Z,1019.25
2016-11-30T03:57:37.877Z,1019.23
2016-11-30T03:57:59.593Z,1019.12
2016-11-30T03:58:21.305Z,1019.14
2016-11-30T03:58:43.024Z,1019.10
2016-11-30T03:59:04.745Z,1019.11
2016-11-30T03:59:26.468Z,1018.96
2016-11-30T03:59:48.179Z,1018.95
2016-11-30T04:00:09.893Z,1018.81
2016-11-30T04:00:31.618Z,1018.90
2016-11-30T04:00:53.327Z,1019.19
2016-11-30T04:01:15.052Z,1019.19
2016-11-30T04:01:36.762Z,1019.26
2016-11-30T04:01:58.473Z,1019.24
2016-11-30T04:02:20.192Z,1019.14
2016-11-30T04:02:41.893Z,1018.91
2016-11-30T04:03:03.607Z,1019.04
2016-11-30T04:03:25.320Z,1018.97
2016-11-30T04:03:47.043Z,1019.19
2016-11-30T04:04:08.765Z,1019.17
2016-11-30T04:04:35.249Z,1019.17
2016-11-30T04:04:56.953Z,1019.09
2016-11-30T04:05:18.664Z,1019.16
2016-11-30T04:05:40.372Z,1018.82
2016-11-30T04:06:02.080Z,1018.92
2016-11-30T04:06:23.791Z,1019.06
2016-11-30T04:06:45.526Z,1019.16
2016-11-30T04:07:07.243Z,1019.16
2016-11-30T04:07:28.962Z,1019.30
2016-11-30T04:07:50.677Z,1019.17
2016-11-30T04:08:12.388Z,1018.97
2016-11-30T04:08:34.103Z,1019.08
2016-11-30T04:08:55.814Z,1018.94
2016-11-30T04:09:17.531Z,1018.92
2016-11-30T04:09:39.248Z,1019.14
2016-11-30T04:10:00.962Z,1018.87
2016-11-30T04:10:22.696Z,1018.90
2016-11-30T04:10:44.404Z,1019.13
2016-11-30T04:11:06.117Z,1019.00
2016-11-30T04:11:27.829Z,1018.88
2016-11-30T04:11:49.538Z,1018.95
2016-11-30T04:12:11.247Z,1019.11
2016-11-30T04:12:32.967Z,1019.08
2016-11-30T04:12:54.685Z,1018.91
2016-11-30T04:13:16.399Z,1018.90
2016-11-30T04:13:38.116Z,1018.70
2016-11-30T04:13:59.824Z,1018.80
2016-11-30T04:14:21.548Z,1018.63
2016-11-30T04:14:43.252Z,1018.83
2016-11-30T04:15:04.967Z,1019.01
2016-11-30T04:15:26.688Z,1019.05
2016-11-30T04:15:48.408Z,1019.09
2016-11-30T04:16:10.128Z,1019.11
2016-11-30T04:16:31.842Z,1019.11
2016-11-30T04:16:53.556Z,1018.79
2016-11-30T04:17:15.268Z,1018.93
2016-11-30T04:17:36.980Z,1018.88
2016-11-30T04:17:58.696Z,1018.61
2016-11-30T04:18:20.409Z,1018.82
2016-11-30T04:18:42.120Z,1018.92
2016-11-30T04:19:03.834Z,1018.96
2016-11-30T04:19:25.546Z,1018.95
2016-11-30T04:19:47.290Z,1018.93
2016-11-30T04:20:09.010Z,1018.83
2016-11-30T04:20:30.734Z,1018.91
2016-11-30T04:20:52.448Z,1018.86
2016-11-30T04:21:14.153Z,1018.71
2016-11-30T04:21:35.874Z,1018.34
2016-11-30T04:21:57.589Z,1018.70
2016-11-30T04:22:19.303Z,1018.81
2016-11-30T04:22:41.013Z,1018.78
2016-11-30T04:23:02.740Z,1019.12
2016-11-30T04:23:24.498Z,1018.88
2016-11-30T04:23:46.215Z,1018.58